createdAt,value
2018-11-21T00:01:59.425Z,100328.24
2018-11-21T00:04:28.164Z,100328.67
2018-11-21T00:06:56.767Z,100329.09
2018-11-21T00:09:25.380Z,100336.01
2018-11-21T00:11:53.815Z,100341.19
2018-11-21T00:14:22.418Z,100336.45
2018-11-21T00:16:50.866Z,100346.39
2018-11-21T00:19:25.094Z,100343.37
2018-11-21T00:21:53.471Z,100350.70
2018-11-21T00:24:21.888Z,100348.11
2018-11-21T00:27:09.348Z,100351.16
2018-11-21T00:30:05.031Z,100348.55
2018-11-21T00:32:22.252Z,100360.64
2018-11-21T00:34:51.594Z,100358.94
2018-11-21T00:37:20.981Z,100355.89
2018-11-21T00:39:49.713Z,100359.80
2018-11-21T00:42:18.170Z,100364.55
2018-11-21T00:44:46.660Z,100371.03
2018-11-21T00:47:18.052Z,100367.98
2018-11-21T00:49:46.460Z,100368.00
2018-11-21T00:52:17.913Z,100374.48
2018-11-21T00:54:46.402Z,100377.91
2018-11-21T00:57:14.804Z,100384.39
2018-11-21T00:59:43.722Z,100386.11
2018-11-21T01:02:12.140Z,100391.73
2018-11-21T01:04:46.103Z,100397.36
2018-11-21T01:07:24.701Z,100388.69
2018-11-21T01:09:59.142Z,100395.16
2018-11-21T01:12:27.526Z,100404.22
2018-11-21T01:14:58.782Z,100412.86
2018-11-21T01:17:27.196Z,100418.02
2018-11-21T01:20:01.712Z,100423.20
2018-11-21T01:22:30.137Z,100420.18
2018-11-21T01:25:04.136Z,100428.38
2018-11-21T01:27:32.541Z,100432.25
2018-11-21T01:30:01.004Z,100430.11
2018-11-21T01:32:29.674Z,100432.27
2018-11-21T01:34:58.081Z,100438.30
2018-11-21T01:37:26.450Z,100439.61
2018-11-21T01:40:00.942Z,100444.77
2018-11-21T01:42:29.360Z,100452.11
2018-11-21T01:44:57.753Z,100452.99
2018-11-21T01:47:26.609Z,100459.86
2018-11-21T01:49:55.247Z,100468.93
2018-11-21T01:52:26.794Z,100465.48
2018-11-21T01:54:55.202Z,100465.48
2018-11-21T01:57:38.881Z,100468.95
2018-11-21T02:00:09.307Z,100470.23
2018-11-21T02:02:37.838Z,100463.72
2018-11-21T02:05:06.825Z,100471.03
2018-11-21T02:07:35.420Z,100474.08
2018-11-21T02:10:03.877Z,100481.42
2018-11-21T02:12:38.157Z,100483.16
2018-11-21T02:15:06.870Z,100481.88
2018-11-21T02:17:35.343Z,100487.05
2018-11-21T02:20:03.773Z,100488.78
2018-11-21T02:22:35.106Z,100494.83
2018-11-21T02:25:03.713Z,100497.87
2018-11-21T02:27:35.308Z,100511.28
2018-11-21T02:30:03.903Z,100501.35
2018-11-21T02:32:32.293Z,100511.27
2018-11-21T02:35:00.856Z,100504.38
2018-11-21T02:37:29.236Z,100500.06
2018-11-21T02:40:15.991Z,100510.84
2018-11-21T02:42:44.382Z,100508.70
2018-11-21T02:45:12.796Z,100513.44
2018-11-21T02:47:41.217Z,100511.69
2018-11-21T02:50:09.781Z,100506.06
2018-11-21T02:52:41.419Z,100508.22
2018-11-21T02:55:09.851Z,100512.53
2018-11-21T02:57:47.327Z,100504.78
2018-11-21T03:00:18.276Z,100509.55
2018-11-21T03:02:46.816Z,100504.77
2018-11-21T03:05:15.316Z,100515.13
2018-11-21T03:07:53.963Z,100529.80
2018-11-21T03:10:30.739Z,100529.83
2018-11-21T03:12:59.155Z,100541.48
2018-11-21T03:15:33.640Z,100539.34
2018-11-21T03:18:04.974Z,100542.37
2018-11-21T03:20:33.402Z,100549.70
2018-11-21T03:23:01.846Z,100541.50
2018-11-21T03:25:30.243Z,100533.71
2018-11-21T03:28:16.808Z,100536.73
2018-11-21T03:30:45.526Z,100539.33
2018-11-21T03:33:20.168Z,100551.44
2018-11-21T03:35:54.615Z,100553.59
2018-11-21T03:38:23.050Z,100559.59
2018-11-21T03:40:51.798Z,100566.08
2018-11-21T03:43:20.216Z,100567.39
2018-11-21T03:45:48.597Z,100573.84
2018-11-21T03:48:17.020Z,100583.36
2018-11-21T03:50:45.536Z,100572.56
2018-11-21T03:53:14.052Z,100589.39
2018-11-21T03:55:42.434Z,100591.98
2018-11-21T03:58:13.825Z,100604.11
2018-11-21T04:00:42.236Z,100607.13
2018-11-21T04:03:22.879Z,100595.05
2018-11-21T04:05:51.730Z,100605.84
2018-11-21T04:08:42.649Z,100605.41
2018-11-21T04:11:07.923Z,100595.05
2018-11-21T04:13:36.322Z,100585.10
2018-11-21T04:16:05.062Z,100589.84
2018-11-21T04:18:36.442Z,100608.41
2018-11-21T04:21:05.237Z,100623.53
2018-11-21T04:23:36.766Z,100625.24
2018-11-21T04:26:20.483Z,100622.23
2018-11-21T04:28:58.086Z,100629.14
2018-11-21T04:31:26.495Z,100625.27
2018-11-21T04:33:55.114Z,100626.56
2018-11-21T04:36:23.518Z,100636.06
2018-11-21T04:38:51.955Z,100633.90
2018-11-21T04:41:20.644Z,100642.52
2018-11-21T04:43:49.071Z,100653.77
2018-11-21T04:46:17.511Z,100667.16
2018-11-21T04:48:45.989Z,100657.66
2018-11-21T04:51:14.373Z,100650.33
2018-11-21T04:53:42.807Z,100644.27
2018-11-21T04:56:11.205Z,100642.12
2018-11-21T04:58:39.750Z,100647.28
2018-11-21T05:01:14.114Z,100654.60
2018-11-21T05:03:42.511Z,100655.44
2018-11-21T05:06:10.891Z,100651.14
2018-11-21T05:08:39.295Z,100655.89
2018-11-21T05:11:13.990Z,100660.19
2018-11-21T05:13:42.421Z,100664.52
2018-11-21T05:16:10.909Z,100678.33
2018-11-21T05:18:48.355Z,100676.59
2018-11-21T05:21:16.757Z,100678.77
2018-11-21T05:23:45.371Z,100675.75
2018-11-21T05:26:13.763Z,100671.85
2018-11-21T05:28:42.370Z,100672.28
2018-11-21T05:31:10.759Z,100676.63
2018-11-21T05:33:43.373Z,100670.59
2018-11-21T05:36:11.754Z,100679.23
2018-11-21T05:38:40.176Z,100680.53
2018-11-21T05:41:14.248Z,100680.11
2018-11-21T05:43:48.474Z,100681.37
2018-11-21T05:46:24.271Z,100695.66
2018-11-21T05:48:52.761Z,100697.78
2018-11-21T05:51:40.516Z,100695.13
2018-11-21T05:54:09.086Z,100705.91
2018-11-21T05:56:37.536Z,100708.91
2018-11-21T05:59:12.325Z,100709.75
2018-11-21T06:01:47.145Z,100716.23
2018-11-21T06:04:21.833Z,100729.60
2018-11-21T06:06:50.270Z,100725.69
2018-11-21T06:09:18.673Z,100720.93
2018-11-21T06:11:47.105Z,100726.48
2018-11-21T06:14:15.562Z,100735.50
2018-11-21T06:16:50.218Z,100737.16
2018-11-21T06:19:18.627Z,100736.72
2018-11-21T06:21:56.615Z,100743.16
2018-11-21T06:24:25.054Z,100743.58
2018-11-21T06:27:00.664Z,100748.73
2018-11-21T06:29:29.239Z,100751.71
2018-11-21T06:31:57.919Z,100753.86
2018-11-21T06:34:29.147Z,100754.25
2018-11-21T06:37:00.830Z,100754.19
2018-11-21T06:39:29.272Z,100764.96
2018-11-21T06:41:57.743Z,100754.99
2018-11-21T06:44:32.341Z,100756.26
2018-11-21T06:47:01.039Z,100756.23
2018-11-21T06:49:29.590Z,100761.80
2018-11-21T06:51:58.378Z,100772.08
2018-11-21T06:54:26.785Z,100774.20
2018-11-21T06:57:03.940Z,100780.64
2018-11-21T06:59:32.520Z,100786.16
2018-11-21T07:02:01.218Z,100792.56
2018-11-21T07:04:29.688Z,100792.13
2018-11-21T07:07:04.023Z,100801.59
2018-11-21T07:09:32.435Z,100809.75
2018-11-21T07:12:09.807Z,100813.23
2018-11-21T07:14:38.240Z,100808.49
2018-11-21T07:17:12.339Z,100812.81
2018-11-21T07:19:40.757Z,100811.97
2018-11-21T07:22:09.224Z,100813.30
2018-11-21T07:24:37.733Z,100812.81
2018-11-21T07:27:06.251Z,100817.99
2018-11-21T07:29:34.901Z,100823.58
2018-11-21T07:32:03.705Z,100840.39
2018-11-21T07:34:32.117Z,100834.73
2018-11-21T07:37:00.722Z,100840.80
2018-11-21T07:39:29.180Z,100832.12
2018-11-21T07:41:57.605Z,100843.72
2018-11-21T07:44:26.025Z,100845.39
2018-11-21T07:46:54.449Z,100842.77
2018-11-21T07:49:23.019Z,100848.34
2018-11-21T07:51:57.680Z,100850.97
2018-11-21T07:54:26.096Z,100847.94
2018-11-21T07:57:34.075Z,100853.92
2018-11-21T08:00:47.590Z,100862.53
2018-11-21T08:03:16.282Z,100868.55
2018-11-21T08:05:47.454Z,100889.65
2018-11-21T08:08:56.437Z,100887.06
2018-11-21T08:11:42.902Z,100891.86
2018-11-21T08:14:28.891Z,100894.05
2018-11-21T08:17:15.164Z,100897.96
2018-11-21T08:20:11.571Z,100900.98
2018-11-21T08:23:04.971Z,100907.50
2018-11-21T08:26:10.581Z,100897.22
2018-11-21T08:28:39.016Z,100897.22
2018-11-21T08:31:07.464Z,100894.20
2018-11-21T08:33:35.925Z,100910.12
2018-11-21T08:36:04.650Z,100900.66
2018-11-21T08:38:33.255Z,100899.00
2018-11-21T08:41:01.916Z,100900.77
2018-11-21T08:43:30.338Z,100896.52
2018-11-21T08:46:11.063Z,100903.46
2018-11-21T08:48:39.493Z,100901.77
2018-11-21T08:51:08.212Z,100910.85
2018-11-21T08:53:36.850Z,100920.42
2018-11-21T08:56:14.417Z,100922.64
2018-11-21T08:58:43.307Z,100933.88
2018-11-21T09:01:11.617Z,100933.47
2018-11-21T09:03:43.281Z,100941.71
2018-11-21T09:06:11.856Z,100952.09
2018-11-21T09:08:40.293Z,100953.02
2018-11-21T09:11:09.245Z,100956.49
2018-11-21T09:13:37.782Z,100964.33
2018-11-21T09:16:06.295Z,100963.98
2018-11-21T09:18:41.024Z,100949.81
2018-11-21T09:21:09.917Z,100958.95
2018-11-21T09:23:38.317Z,100962.05
2018-11-21T09:26:07.104Z,100959.17
2018-11-21T09:28:35.499Z,100965.23
2018-11-21T09:31:33.825Z,100964.00
2018-11-21T09:33:56.617Z,100957.59
2018-11-21T09:39:14.689Z,100956.03
2018-11-21T09:41:43.102Z,100961.36
2018-11-21T09:44:23.885Z,100972.69
2018-11-21T09:46:52.322Z,100981.84
2018-11-21T09:49:20.769Z,100984.94
2018-11-21T09:51:49.173Z,100988.05
2018-11-21T09:54:17.933Z,100997.25
2018-11-21T09:56:46.766Z,101001.77
2018-11-21T09:59:15.210Z,101001.89
2018-11-21T10:02:20.544Z,101005.02
2018-11-21T10:04:49.117Z,101003.40
2018-11-21T10:07:17.586Z,100997.08
2018-11-21T10:09:47.935Z,101000.16
2018-11-21T10:12:16.433Z,101000.66
2018-11-21T10:14:47.759Z,100993.81
2018-11-21T10:17:16.219Z,100992.98
2018-11-21T10:19:44.683Z,100984.36
2018-11-21T10:22:13.232Z,100985.31
2018-11-21T10:24:44.688Z,100986.59
2018-11-21T10:27:13.281Z,100988.35
2018-11-21T10:29:41.657Z,100985.81
2018-11-21T10:34:58.542Z,100981.61
2018-11-21T10:37:27.023Z,100980.78
2018-11-21T10:39:55.587Z,100974.28
2018-11-21T10:42:24.012Z,100977.28
2018-11-21T10:44:58.430Z,100978.58
2018-11-21T10:47:26.846Z,100979.37
2018-11-21T10:49:58.375Z,100982.81
2018-11-21T10:52:31.635Z,100978.48
2018-11-21T10:54:58.069Z,100974.19
2018-11-21T10:57:38.422Z,100985.47
2018-11-21T11:00:14.226Z,100993.72
2018-11-21T11:02:58.012Z,100999.37
2018-11-21T11:05:40.414Z,100995.45
2018-11-21T11:08:39.791Z,101001.09
2018-11-21T11:11:26.067Z,101012.31
2018-11-21T11:14:16.568Z,101015.33
2018-11-21T11:17:18.145Z,101020.94
2018-11-21T11:20:08.613Z,101020.94
2018-11-21T11:22:59.089Z,101028.70
2018-11-21T11:26:10.826Z,101026.08
2018-11-21T11:29:07.497Z,101021.35
2018-11-21T11:31:57.954Z,101024.38
2018-11-21T11:34:48.043Z,101015.73
2018-11-21T11:37:34.430Z,101022.22
2018-11-21T11:40:30.873Z,101032.58
2018-11-21T11:43:15.763Z,101031.29
2018-11-21T11:46:01.633Z,101033.87
2018-11-21T11:48:47.277Z,101037.83
2018-11-21T11:51:39.251Z,101034.40
2018-11-21T11:54:25.286Z,101032.27
2018-11-21T11:57:31.040Z,101019.73
2018-11-21T12:00:29.836Z,101019.73
2018-11-21T12:03:15.918Z,101034.06
2018-11-21T12:06:02.450Z,101036.21
2018-11-21T12:08:40.755Z,101040.52
2018-11-21T12:11:31.098Z,101039.59
2018-11-21T12:14:34.010Z,101042.21
2018-11-21T12:17:27.593Z,101034.39
2018-11-21T12:20:21.005Z,101034.38
2018-11-21T12:23:14.471Z,101029.61
2018-11-21T12:26:10.631Z,101023.97
2018-11-21T12:29:07.078Z,101024.84
2018-11-21T12:31:53.237Z,101019.69
2018-11-21T12:34:40.739Z,101012.83
2018-11-21T12:37:26.784Z,101008.55
2018-11-21T12:40:04.511Z,101015.46
2018-11-21T12:42:57.937Z,101015.89
2018-11-21T12:45:54.069Z,101019.77
2018-11-21T12:48:40.664Z,101021.02
2018-11-21T12:51:31.119Z,101025.31
2018-11-21T12:54:24.295Z,101020.56
2018-11-21T12:57:23.559Z,101022.27
2018-11-21T13:00:11.213Z,101016.20
2018-11-21T13:03:01.373Z,101011.38
2018-11-21T13:05:40.386Z,101020.02
2018-11-21T13:08:43.006Z,101029.52
2018-11-21T13:11:29.621Z,101016.94
2018-11-21T13:14:32.450Z,101020.83
2018-11-21T13:17:38.248Z,101015.62
2018-11-21T13:20:26.534Z,101021.72
2018-11-21T13:23:11.814Z,101021.30
2018-11-21T13:26:01.731Z,101022.58
2018-11-21T13:28:58.470Z,101022.16
2018-11-21T13:31:50.744Z,101014.39
2018-11-21T13:34:37.204Z,101016.98
2018-11-21T13:37:31.109Z,101031.29
2018-11-21T13:40:27.476Z,101047.29
2018-11-21T13:43:17.913Z,101047.27
2018-11-21T13:46:17.463Z,101042.53
2018-11-21T13:49:25.970Z,101051.63
2018-11-21T13:52:11.966Z,101051.59
2018-11-21T13:55:00.201Z,101048.58
2018-11-21T13:57:34.959Z,101044.22
2018-11-21T14:00:03.999Z,101042.03
2018-11-21T14:02:32.579Z,101042.47
2018-11-21T14:05:07.212Z,101040.70
2018-11-21T14:07:35.620Z,101059.31
2018-11-21T14:10:05.600Z,101064.06
2018-11-21T14:12:34.239Z,101058.45
2018-11-21T14:15:08.801Z,101051.08
2018-11-21T14:17:37.122Z,101054.09
2018-11-21T14:20:10.905Z,101049.31
2018-11-21T14:22:48.170Z,101054.94
2018-11-21T14:25:16.663Z,101048.90
2018-11-21T14:27:45.862Z,101056.69
2018-11-21T14:30:36.540Z,101052.77
2018-11-21T14:33:07.693Z,101056.58
2018-11-21T14:35:36.146Z,101067.39
2018-11-21T14:38:04.605Z,101070.01
2018-11-21T14:40:33.060Z,101071.73
2018-11-21T14:43:01.451Z,101070.45
2018-11-21T14:45:29.994Z,101067.44
2018-11-21T14:48:04.585Z,101069.14
2018-11-21T14:50:39.177Z,101070.89
2018-11-21T14:53:09.363Z,101071.30
2018-11-21T14:55:43.465Z,101074.70
2018-11-21T14:58:11.966Z,101078.11
2018-11-21T15:00:40.427Z,101078.95
2018-11-21T15:03:18.393Z,101085.47
2018-11-21T15:05:42.994Z,101087.66
2018-11-21T15:08:14.354Z,101086.35
2018-11-21T15:10:42.765Z,101088.51
2018-11-21T15:13:17.495Z,101091.11
2018-11-21T15:15:45.916Z,101091.07
2018-11-21T15:18:14.834Z,101091.88
2018-11-21T15:20:46.136Z,101099.60
2018-11-21T15:23:17.696Z,101094.39
2018-11-21T15:25:46.253Z,101097.81
2018-11-21T15:28:14.673Z,101103.01
2018-11-21T15:30:49.022Z,101099.13
2018-11-21T15:33:23.539Z,101097.38
2018-11-21T15:35:52.023Z,101100.42
2018-11-21T15:38:20.453Z,101103.45
2018-11-21T15:40:48.950Z,101102.13
2018-11-21T15:43:17.385Z,101100.39
2018-11-21T15:45:52.072Z,101092.97
2018-11-21T15:48:26.851Z,101095.11
2018-11-21T15:51:01.508Z,101101.91
2018-11-21T15:53:29.995Z,101100.58
2018-11-21T15:56:04.211Z,101111.81
2018-11-21T15:58:32.993Z,101111.37
2018-11-21T16:01:01.549Z,101111.81
2018-11-21T16:03:29.947Z,101111.41
2018-11-21T16:06:04.281Z,101115.70
2018-11-21T16:08:32.682Z,101111.34
2018-11-21T16:11:01.420Z,101111.30
2018-11-21T16:13:29.951Z,101115.58
2018-11-21T16:16:01.231Z,101113.39
2018-11-21T16:18:29.788Z,101112.53
2018-11-21T16:21:03.948Z,101111.23
2018-11-21T16:23:32.381Z,101110.83
2018-11-21T16:26:00.908Z,101112.09
2018-11-21T16:28:29.481Z,101106.84
2018-11-21T16:30:58.097Z,101116.34
2018-11-21T16:33:26.894Z,101121.09
2018-11-21T16:36:04.059Z,101120.23
2018-11-21T16:38:34.926Z,101127.95
2018-11-21T16:41:04.935Z,101127.45
2018-11-21T16:43:36.422Z,101138.23
2018-11-21T16:46:04.901Z,101137.80
2018-11-21T16:48:33.422Z,101143.84
2018-11-21T16:51:07.839Z,101148.99
2018-11-21T16:53:40.574Z,101154.59
2018-11-21T16:56:12.560Z,101148.08
2018-11-21T16:58:40.970Z,101149.78
2018-11-21T17:01:09.394Z,101155.80
2018-11-21T17:03:43.739Z,101153.61
2018-11-21T17:06:12.386Z,101156.61
2018-11-21T17:08:43.431Z,101162.65
2018-11-21T17:11:18.087Z,101161.28
2018-11-21T17:13:46.610Z,101163.34
2018-11-21T17:16:15.128Z,101164.63
2018-11-21T17:18:43.616Z,101163.75
2018-11-21T17:21:12.106Z,101162.83
2018-11-21T17:23:40.597Z,101170.59
2018-11-21T17:26:09.341Z,101167.94
2018-11-21T17:28:37.792Z,101174.38
2018-11-21T17:31:09.003Z,101180.79
2018-11-21T17:33:37.553Z,101174.27
2018-11-21T17:36:12.190Z,101172.91
2018-11-21T17:38:40.619Z,101177.23
2018-11-21T17:41:09.091Z,101184.97
2018-11-21T17:43:37.489Z,101184.97
2018-11-21T17:46:12.178Z,101187.97
2018-11-21T17:48:46.794Z,101192.27
2018-11-21T17:51:15.494Z,101186.23
2018-11-21T17:53:44.114Z,101187.93
2018-11-21T17:56:15.606Z,101191.38
2018-11-21T17:58:44.111Z,101192.19
2018-11-21T18:01:12.780Z,101193.44
2018-11-21T18:03:41.315Z,101184.30
2018-11-21T18:06:09.758Z,101186.00
2018-11-21T18:08:38.226Z,101193.28
2018-11-21T18:11:12.530Z,101191.47
2018-11-21T18:13:41.035Z,101196.60
2018-11-21T18:16:09.849Z,101201.78
2018-11-21T18:18:38.328Z,101195.27
2018-11-21T18:21:06.737Z,101206.84
2018-11-21T18:23:35.395Z,101210.23
2018-11-21T18:26:03.834Z,101218.01
2018-11-21T18:28:32.412Z,101218.45
2018-11-21T18:31:00.833Z,101218.05
2018-11-21T18:33:29.604Z,101221.08
2018-11-21T18:36:10.225Z,101222.33
2018-11-21T18:38:38.850Z,101225.77
2018-11-21T18:41:07.484Z,101225.38
2018-11-21T18:43:42.171Z,101234.97
2018-11-21T18:46:10.605Z,101235.45
2018-11-21T18:48:56.836Z,101238.53
2018-11-21T18:51:25.407Z,101241.53
2018-11-21T18:53:54.944Z,101238.09
2018-11-21T18:57:03.070Z,101238.98
2018-11-21T18:59:48.728Z,101248.98
2018-11-21T19:02:26.521Z,101253.72
2018-11-21T19:04:55.062Z,101252.46
2018-11-21T19:07:23.491Z,101254.24
2018-11-21T19:09:54.501Z,101259.88
2018-11-21T19:12:26.664Z,101251.70
2018-11-21T19:14:55.293Z,101253.44
2018-11-21T19:17:29.744Z,101255.58
2018-11-21T19:19:58.277Z,101251.70
2018-11-21T19:22:26.779Z,101253.44
2018-11-21T19:24:56.535Z,101250.88
2018-11-21T19:27:26.696Z,101249.99
2018-11-21T19:29:55.344Z,101254.25
2018-11-21T19:32:24.067Z,101253.84
2018-11-21T19:34:52.547Z,101255.58
2018-11-21T19:37:21.062Z,101254.77
2018-11-21T19:39:49.555Z,101258.22
2018-11-21T19:42:26.817Z,101265.09
2018-11-21T19:45:01.400Z,101265.98
2018-11-21T19:47:29.918Z,101265.55
2018-11-21T19:49:58.592Z,101265.55
2018-11-21T19:52:27.080Z,101262.06
2018-11-21T19:54:55.552Z,101262.06
2018-11-21T19:57:30.040Z,101261.61
2018-11-21T19:59:58.553Z,101268.05
2018-11-21T20:02:27.196Z,101261.16
2018-11-21T20:05:15.273Z,101263.76
2018-11-21T20:07:50.140Z,101258.17
2018-11-21T20:10:24.910Z,101260.35
2018-11-21T20:12:53.596Z,101264.16
2018-11-21T20:15:23.570Z,101267.23
2018-11-21T20:17:53.949Z,101259.42
2018-11-21T20:20:22.991Z,101264.69
2018-11-21T20:22:53.969Z,101263.40
2018-11-21T20:25:23.529Z,101263.84
2018-11-21T20:28:09.389Z,101268.17
2018-11-21T20:33:29.434Z,101269.02
2018-11-21T20:36:00.106Z,101265.09
2018-11-21T20:38:26.632Z,101268.53
2018-11-21T20:40:55.470Z,101268.48
2018-11-21T20:43:23.869Z,101264.61
2018-11-21T20:45:52.360Z,101262.02
2018-11-21T20:48:23.358Z,101258.58
2018-11-21T20:50:52.036Z,101262.55
2018-11-21T20:53:23.623Z,101262.55
2018-11-21T20:55:52.105Z,101261.70
2018-11-21T20:58:20.654Z,101260.03
2018-11-21T21:00:49.130Z,101261.78
2018-11-21T21:03:17.630Z,101266.55
2018-11-21T21:05:46.145Z,101263.08
2018-11-21T21:08:14.691Z,101263.16
2018-11-21T21:10:47.211Z,101261.38
2018-11-21T21:13:15.793Z,101257.89
2018-11-21T21:15:44.545Z,101263.11
2018-11-21T21:18:35.119Z,101264.45
2018-11-21T21:21:03.656Z,101259.72
2018-11-21T21:23:32.492Z,101257.13
2018-11-21T21:26:02.136Z,101259.27
2018-11-21T21:28:37.844Z,101252.38
2018-11-21T21:31:06.380Z,101256.27
2018-11-21T21:33:35.015Z,101259.72
2018-11-21T21:36:03.548Z,101258.86
2018-11-21T21:38:32.049Z,101260.16
2018-11-21T21:41:00.462Z,101264.09
2018-11-21T21:43:29.009Z,101258.05
2018-11-21T21:45:57.466Z,101260.23
2018-11-21T21:48:31.777Z,101262.87
2018-11-21T21:51:00.203Z,101267.61
2018-11-21T21:53:33.101Z,101264.17
2018-11-21T21:56:02.356Z,101259.02
2018-11-21T21:58:31.789Z,101255.50
2018-11-21T22:01:01.449Z,101268.05
2018-11-21T22:03:30.345Z,101263.72
2018-11-21T22:05:59.977Z,101264.58
2018-11-21T22:08:29.042Z,101261.98
2018-11-21T22:10:58.282Z,101266.27
2018-11-21T22:13:27.206Z,101263.23
2018-11-21T22:15:55.666Z,101266.72
2018-11-21T22:18:30.373Z,101268.45
2018-11-21T22:20:58.809Z,101268.42
2018-11-21T22:23:27.243Z,101273.60
2018-11-21T22:26:04.965Z,101277.53
2018-11-21T22:28:45.598Z,101278.42
2018-11-21T22:31:14.095Z,101273.64
2018-11-21T22:33:48.252Z,101281.02
2018-11-21T22:36:16.707Z,101275.02
2018-11-21T22:38:45.265Z,101273.28
2018-11-21T22:41:35.940Z,101268.09
2018-11-21T22:44:04.436Z,101268.98
2018-11-21T22:46:32.822Z,101269.47
2018-11-21T22:49:01.458Z,101266.03
2018-11-21T22:51:30.220Z,101272.51
2018-11-21T22:53:58.663Z,101281.58
2018-11-21T22:56:27.148Z,101275.54
2018-11-21T22:58:55.518Z,101278.17
2018-11-21T23:04:20.381Z,101279.95
2018-11-21T23:06:48.902Z,101277.36
2018-11-21T23:09:17.441Z,101278.66
2018-11-21T23:11:46.447Z,101282.14
2018-11-21T23:14:15.010Z,101279.18
2018-11-21T23:16:43.839Z,101280.92
2018-11-21T23:19:12.247Z,101280.48
2018-11-21T23:21:40.755Z,101280.52
2018-11-21T23:24:09.189Z,101284.41
2018-11-21T23:26:37.685Z,101286.19
2018-11-21T23:29:11.959Z,101283.19
2018-11-21T23:31:40.365Z,101276.70
2018-11-21T23:34:08.899Z,101281.45
2018-11-21T23:36:37.328Z,101275.41
2018-11-21T23:39:07.826Z,101278.07
2018-11-21T23:41:39.327Z,101278.89
2018-11-21T23:44:07.720Z,101273.70
2018-11-21T23:46:36.186Z,101277.15
2018-11-21T23:49:04.730Z,101278.52
2018-11-21T23:51:38.843Z,101275.52
2018-11-21T23:54:15.498Z,101278.97
2018-11-21T23:56:43.879Z,101278.52
2018-11-21T23:59:12.515Z,101279.41
